createdAt,value
2018-12-20T00:01:06.979Z,2.40
2018-12-20T00:03:41.701Z,2.30
2018-12-20T00:06:12.469Z,2.40
2018-12-20T00:08:46.693Z,2.40
2018-12-20T00:11:20.849Z,2.30
2018-12-20T00:13:56.136Z,2.40
2018-12-20T00:16:30.869Z,2.30
2018-12-20T00:21:39.469Z,2.40
2018-12-20T00:24:14.271Z,2.40
2018-12-20T00:26:48.490Z,2.40
2018-12-20T00:29:22.555Z,2.50
2018-12-20T00:31:57.610Z,2.40
2018-12-20T00:34:31.538Z,2.50
2018-12-20T00:37:05.554Z,2.40
2018-12-20T00:39:39.679Z,2.40
2018-12-20T00:42:15.458Z,2.50
2018-12-20T00:44:49.508Z,2.50
2018-12-20T00:47:23.757Z,2.50
2018-12-20T00:49:57.671Z,2.50
2018-12-20T00:52:32.795Z,2.50
2018-12-20T00:55:07.002Z,2.50
2018-12-20T00:57:41.621Z,2.50
2018-12-20T01:00:15.717Z,2.50
2018-12-20T01:02:55.223Z,2.60
2018-12-20T01:05:26.818Z,2.50
2018-12-20T01:08:01.605Z,2.50
2018-12-20T01:10:36.359Z,2.50
2018-12-20T01:13:10.537Z,2.50
2018-12-20T01:15:44.560Z,2.40
2018-12-20T01:18:18.645Z,2.50
2018-12-20T01:20:52.873Z,2.40
2018-12-20T01:23:27.957Z,2.40
2018-12-20T01:26:01.997Z,2.40
2018-12-20T01:28:36.160Z,2.40
2018-12-20T01:31:10.931Z,2.50
2018-12-20T01:33:42.776Z,2.50
2018-12-20T01:36:17.295Z,2.50
2018-12-20T01:38:51.261Z,2.40
2018-12-20T01:41:25.381Z,2.40
2018-12-20T01:44:01.378Z,2.40
2018-12-20T01:46:32.186Z,2.40
2018-12-20T01:49:07.093Z,2.40
2018-12-20T01:51:41.260Z,2.50
2018-12-20T01:54:15.906Z,2.50
2018-12-20T01:56:49.849Z,2.50
2018-12-20T01:59:24.624Z,2.60
2018-12-20T02:01:59.578Z,2.50
2018-12-20T02:04:34.469Z,2.50
2018-12-20T02:07:08.482Z,2.50
2018-12-20T02:09:42.450Z,2.50
2018-12-20T02:12:17.311Z,2.50
2018-12-20T02:17:22.444Z,2.50
2018-12-20T02:19:53.290Z,2.50
2018-12-20T02:22:27.417Z,2.50
2018-12-20T02:25:01.702Z,2.50
2018-12-20T02:27:35.713Z,2.50
2018-12-20T02:30:09.852Z,2.50
2018-12-20T02:37:52.704Z,2.40
2018-12-20T02:40:26.660Z,2.60
2018-12-20T02:43:01.803Z,2.60
2018-12-20T02:45:36.629Z,2.50
2018-12-20T02:48:10.583Z,2.50
2018-12-20T02:50:44.540Z,2.50
2018-12-20T02:53:19.528Z,2.50
2018-12-20T02:55:53.443Z,2.50
2018-12-20T02:58:27.595Z,2.60
2018-12-20T03:01:02.273Z,2.60
2018-12-20T03:03:36.413Z,2.50
2018-12-20T03:06:10.991Z,2.60
2018-12-20T03:08:45.354Z,2.60
2018-12-20T03:11:19.454Z,2.70
2018-12-20T03:13:56.393Z,2.60
2018-12-20T03:16:27.232Z,2.50
2018-12-20T03:21:37.000Z,2.60
2018-12-20T03:26:42.025Z,2.60
2018-12-20T03:29:12.674Z,2.70
2018-12-20T03:31:48.955Z,2.60
2018-12-20T03:34:23.597Z,2.60
2018-12-20T03:36:58.655Z,2.60
2018-12-20T03:42:03.297Z,3.00
2018-12-20T03:44:37.307Z,2.60
2018-12-20T03:47:12.196Z,2.60
2018-12-20T03:49:47.002Z,2.60
2018-12-20T03:52:22.813Z,2.60
2018-12-20T03:54:56.950Z,2.60
2018-12-20T03:57:31.698Z,2.60
2018-12-20T04:00:06.168Z,2.60
2018-12-20T04:02:42.014Z,2.60
2018-12-20T04:05:16.835Z,2.60
2018-12-20T04:07:50.934Z,2.60
2018-12-20T04:18:12.027Z,3.50
2018-12-20T04:20:46.128Z,2.70
2018-12-20T04:43:47.007Z,2.70
2018-12-20T04:46:21.957Z,2.80
2018-12-20T04:48:56.873Z,2.80
2018-12-20T04:51:31.916Z,2.70
2018-12-20T04:54:06.791Z,2.70
2018-12-20T04:56:40.730Z,2.70
2018-12-20T04:59:15.803Z,2.70
2018-12-20T05:01:50.919Z,2.70
2018-12-20T05:04:25.796Z,2.70
2018-12-20T05:07:00.334Z,2.70
2018-12-20T05:09:35.148Z,2.80
2018-12-20T05:12:07.033Z,2.80
2018-12-20T05:14:40.952Z,2.80
2018-12-20T05:17:15.116Z,2.80
2018-12-20T05:19:50.128Z,2.80
2018-12-20T05:22:25.021Z,2.80
2018-12-20T05:24:59.753Z,2.80
2018-12-20T05:27:33.873Z,2.80
2018-12-20T05:40:13.797Z,2.90
2018-12-20T05:45:18.950Z,2.90
2018-12-20T05:47:52.997Z,2.90
2018-12-20T05:50:27.853Z,2.90
2018-12-20T05:53:02.716Z,2.90
2018-12-20T05:55:36.693Z,2.90
2018-12-20T05:58:10.636Z,2.80
2018-12-20T06:00:44.818Z,2.80
2018-12-20T06:03:19.056Z,2.80
2018-12-20T06:05:50.013Z,2.80
2018-12-20T06:08:24.797Z,2.80
2018-12-20T06:10:59.215Z,2.80
2018-12-20T06:13:33.848Z,2.80
2018-12-20T06:16:12.633Z,2.80
2018-12-20T06:18:43.968Z,2.80
2018-12-20T06:21:18.064Z,2.80
2018-12-20T06:23:54.010Z,2.80
2018-12-20T06:26:28.717Z,2.80
2018-12-20T06:29:02.745Z,2.80
2018-12-20T06:31:36.801Z,2.80
2018-12-20T06:34:10.733Z,2.80
2018-12-20T06:36:41.489Z,2.80
2018-12-20T06:39:15.421Z,2.80
2018-12-20T06:41:49.829Z,2.70
2018-12-20T06:44:24.533Z,2.70
2018-12-20T06:46:58.549Z,2.60
2018-12-20T06:49:33.378Z,2.70
2018-12-20T06:52:07.437Z,2.70
2018-12-20T06:54:41.353Z,2.60
2018-12-20T06:57:15.385Z,2.60
2018-12-20T06:59:50.185Z,2.70
2018-12-20T07:02:27.034Z,2.70
2018-12-20T07:05:01.848Z,2.60
2018-12-20T07:07:35.985Z,2.60
2018-12-20T07:10:09.969Z,2.60
2018-12-20T07:12:44.121Z,2.60
2018-12-20T07:15:18.727Z,2.60
2018-12-20T07:17:52.844Z,2.60
2018-12-20T07:20:26.746Z,2.60
2018-12-20T07:23:01.819Z,2.70
2018-12-20T07:25:35.710Z,2.70
2018-12-20T07:28:09.626Z,2.70
2018-12-20T07:30:43.533Z,2.70
2018-12-20T07:33:17.513Z,2.70
2018-12-20T07:35:51.538Z,2.70
2018-12-20T07:38:25.447Z,2.70
2018-12-20T07:40:59.489Z,2.70
2018-12-20T07:43:33.457Z,2.70
2018-12-20T07:46:07.501Z,2.80
2018-12-20T07:48:38.142Z,2.90
2018-12-20T07:51:12.049Z,2.80
2018-12-20T07:53:43.973Z,2.90
2018-12-20T07:56:18.806Z,2.90
2018-12-20T07:58:53.656Z,2.90
2018-12-20T08:01:27.906Z,3.00
2018-12-20T08:04:03.395Z,3.00
2018-12-20T08:06:37.573Z,3.00
2018-12-20T08:09:11.610Z,3.10
2018-12-20T08:11:46.024Z,3.10
2018-12-20T08:14:19.978Z,3.10
2018-12-20T08:16:54.106Z,3.10
2018-12-20T08:19:36.017Z,3.10
2018-12-20T08:22:04.717Z,3.20
2018-12-20T08:24:38.756Z,3.20
2018-12-20T08:27:12.857Z,3.20
2018-12-20T08:29:47.368Z,3.30
2018-12-20T08:32:23.227Z,3.30
2018-12-20T08:34:57.241Z,3.30
2018-12-20T08:37:31.346Z,3.40
2018-12-20T08:40:06.093Z,3.40
2018-12-20T08:42:40.501Z,3.50
2018-12-20T08:45:14.541Z,3.50
2018-12-20T08:47:48.458Z,3.60
2018-12-20T08:50:22.485Z,3.60
2018-12-20T08:53:04.234Z,3.80
2018-12-20T08:58:09.518Z,3.80
2018-12-20T09:05:51.957Z,4.00
2018-12-20T09:08:25.861Z,4.10
2018-12-20T09:10:59.985Z,4.10
2018-12-20T09:13:34.056Z,4.10
2018-12-20T09:16:08.074Z,4.20
2018-12-20T09:18:42.798Z,4.20
2018-12-20T09:21:16.838Z,4.20
2018-12-20T09:23:50.819Z,4.20
2018-12-20T09:26:24.732Z,4.20
2018-12-20T09:28:54.946Z,4.20
2018-12-20T09:31:29.209Z,4.20
2018-12-20T09:34:03.310Z,4.30
2018-12-20T09:39:07.511Z,4.60
2018-12-20T09:41:41.546Z,4.70
2018-12-20T09:46:52.805Z,4.90
2018-12-20T09:49:27.101Z,4.90
2018-12-20T09:52:02.221Z,5.10
2018-12-20T09:54:36.253Z,5.30
2018-12-20T09:57:10.389Z,5.60
2018-12-20T09:59:44.421Z,5.70
2018-12-20T10:02:19.339Z,5.70
2018-12-20T10:04:53.561Z,5.80
2018-12-20T10:07:27.887Z,6.00
2018-12-20T10:09:57.882Z,6.10
2018-12-20T10:20:11.879Z,6.70
2018-12-20T10:25:16.842Z,6.20
2018-12-20T10:33:02.554Z,6.00
2018-12-20T10:35:36.558Z,6.20
2018-12-20T10:38:10.691Z,6.10
2018-12-20T10:48:24.865Z,6.70
2018-12-20T10:50:59.209Z,6.70
2018-12-20T10:53:33.285Z,6.90
2018-12-20T10:56:07.286Z,6.70
2018-12-20T10:58:41.410Z,6.70
2018-12-20T11:01:21.339Z,6.70
2018-12-20T11:04:03.222Z,6.60
2018-12-20T11:06:42.849Z,6.60
2018-12-20T11:09:22.935Z,6.60
2018-12-20T11:12:04.105Z,6.60
2018-12-20T11:14:38.339Z,6.50
2018-12-20T11:17:12.454Z,6.50
2018-12-20T11:19:43.177Z,6.40
2018-12-20T11:22:17.400Z,6.40
2018-12-20T11:24:52.133Z,6.40
2018-12-20T11:27:22.247Z,6.40
2018-12-20T11:29:56.182Z,6.50
2018-12-20T11:32:30.478Z,6.50
2018-12-20T11:35:04.892Z,6.40
2018-12-20T11:37:39.458Z,6.40
2018-12-20T11:40:13.381Z,6.40
2018-12-20T11:42:48.359Z,6.50
2018-12-20T11:45:22.273Z,6.60
2018-12-20T11:47:56.881Z,6.50
2018-12-20T11:50:30.937Z,6.50
2018-12-20T11:53:06.037Z,6.60
2018-12-20T11:55:39.970Z,6.60
2018-12-20T11:58:13.978Z,6.60
2018-12-20T12:00:48.110Z,6.80
2018-12-20T12:03:22.294Z,6.80
2018-12-20T12:05:56.222Z,6.60
2018-12-20T12:08:30.265Z,6.10
2018-12-20T12:11:04.218Z,6.60
2018-12-20T12:13:38.316Z,6.80
2018-12-20T12:16:12.289Z,6.90
2018-12-20T12:18:46.394Z,6.60
2018-12-20T12:21:20.545Z,6.70
2018-12-20T12:23:54.672Z,6.80
2018-12-20T12:26:28.918Z,6.60
2018-12-20T12:29:03.725Z,6.30
2018-12-20T12:31:37.909Z,6.80
2018-12-20T12:34:12.733Z,6.80
2018-12-20T12:36:46.765Z,6.70
2018-12-20T12:39:21.665Z,6.70
2018-12-20T12:41:52.482Z,6.70
2018-12-20T12:44:27.309Z,6.70
2018-12-20T12:47:01.646Z,6.70
2018-12-20T12:49:35.737Z,6.70
2018-12-20T12:52:11.662Z,6.70
2018-12-20T12:54:45.593Z,6.70
2018-12-20T12:57:22.179Z,6.70
2018-12-20T13:04:58.133Z,6.80
2018-12-20T13:07:31.946Z,6.80
2018-12-20T13:10:06.497Z,6.70
2018-12-20T13:12:41.202Z,6.70
2018-12-20T13:15:15.132Z,6.70
2018-12-20T13:17:50.026Z,6.80
2018-12-20T13:20:24.002Z,6.70
2018-12-20T13:22:55.693Z,7.10
2018-12-20T13:25:30.022Z,6.70
2018-12-20T13:28:03.950Z,6.50
2018-12-20T13:30:37.854Z,6.50
2018-12-20T13:33:09.777Z,6.50
2018-12-20T13:35:44.650Z,6.70
2018-12-20T13:38:18.572Z,6.50
2018-12-20T13:40:52.613Z,6.50
2018-12-20T13:43:26.745Z,6.50
2018-12-20T13:46:01.577Z,6.40
2018-12-20T13:48:35.697Z,6.80
2018-12-20T13:51:09.590Z,6.40
2018-12-20T13:53:45.675Z,6.20
2018-12-20T13:56:19.888Z,6.40
2018-12-20T13:58:53.834Z,6.40
2018-12-20T14:01:27.910Z,6.30
2018-12-20T14:04:02.110Z,6.30
2018-12-20T14:06:36.725Z,6.30
2018-12-20T14:09:11.782Z,6.30
2018-12-20T14:11:42.899Z,6.30
2018-12-20T14:14:17.133Z,6.30
2018-12-20T14:16:51.170Z,6.30
2018-12-20T14:19:25.298Z,6.20
2018-12-20T14:22:00.172Z,6.20
2018-12-20T14:24:34.101Z,6.10
2018-12-20T14:27:08.337Z,6.00
2018-12-20T14:29:42.257Z,5.90
2018-12-20T14:32:16.315Z,5.90
2018-12-20T14:34:50.429Z,5.90
2018-12-20T14:37:25.318Z,5.80
2018-12-20T14:40:00.087Z,5.60
2018-12-20T14:42:35.034Z,5.50
2018-12-20T14:45:09.294Z,5.40
2018-12-20T14:47:43.457Z,5.40
2018-12-20T14:50:17.474Z,5.20
2018-12-20T14:52:53.229Z,5.10
2018-12-20T14:55:27.470Z,5.00
2018-12-20T14:58:01.427Z,5.00
2018-12-20T15:00:36.282Z,4.90
2018-12-20T15:03:11.209Z,4.90
2018-12-20T15:05:46.005Z,4.90
2018-12-20T15:08:20.697Z,5.00
2018-12-20T15:10:54.621Z,4.90
2018-12-20T15:13:29.697Z,4.80
2018-12-20T15:16:04.458Z,4.80
2018-12-20T15:18:35.314Z,4.80
2018-12-20T15:21:09.290Z,4.80
2018-12-20T15:23:45.491Z,4.80
2018-12-20T15:26:19.567Z,4.80
2018-12-20T15:28:53.829Z,4.80
2018-12-20T15:31:28.665Z,4.80
2018-12-20T15:34:03.667Z,4.70
2018-12-20T15:36:37.634Z,4.70
2018-12-20T15:39:11.701Z,4.70
2018-12-20T15:41:45.897Z,4.70
2018-12-20T15:44:20.413Z,4.70
2018-12-20T15:46:54.465Z,4.70
2018-12-20T15:49:28.614Z,4.70
2018-12-20T15:52:03.457Z,4.70
2018-12-20T15:54:38.157Z,4.70
2018-12-20T15:57:12.921Z,4.70
2018-12-20T15:59:47.790Z,4.70
2018-12-20T16:02:22.698Z,4.60
2018-12-20T16:04:56.781Z,4.60
2018-12-20T16:07:30.842Z,4.60
2018-12-20T16:10:05.994Z,4.60
2018-12-20T16:12:40.874Z,4.70
2018-12-20T16:15:14.853Z,4.80
2018-12-20T16:17:48.859Z,4.70
2018-12-20T16:20:23.069Z,4.70
2018-12-20T16:22:57.361Z,4.80
2018-12-20T16:25:28.094Z,4.70
2018-12-20T16:28:02.059Z,4.80
2018-12-20T16:30:36.130Z,4.80
2018-12-20T16:33:11.914Z,4.80
2018-12-20T16:35:45.925Z,4.80
2018-12-20T16:38:19.857Z,4.80
2018-12-20T16:40:54.663Z,4.80
2018-12-20T16:43:28.777Z,4.80
2018-12-20T16:46:02.758Z,4.80
2018-12-20T16:48:37.573Z,4.80
2018-12-20T16:51:11.684Z,4.80
2018-12-20T16:53:45.693Z,4.80
2018-12-20T16:56:19.778Z,4.80
2018-12-20T16:58:54.614Z,4.80
2018-12-20T17:01:28.657Z,4.90
2018-12-20T17:04:02.802Z,4.80
2018-12-20T17:06:37.229Z,4.70
2018-12-20T17:09:11.265Z,4.70
2018-12-20T17:11:45.442Z,4.70
2018-12-20T17:14:20.077Z,4.80
2018-12-20T17:16:54.142Z,4.70
2018-12-20T17:19:29.001Z,4.80
2018-12-20T17:22:03.841Z,4.80
2018-12-20T17:24:37.918Z,4.80
2018-12-20T17:27:12.742Z,4.80
2018-12-20T17:29:46.566Z,4.70
2018-12-20T17:32:21.411Z,4.70
2018-12-20T17:34:56.158Z,4.70
2018-12-20T17:37:30.961Z,4.70
2018-12-20T17:40:05.126Z,4.70
2018-12-20T17:42:40.059Z,4.80
2018-12-20T17:45:14.997Z,4.70
2018-12-20T17:47:49.094Z,4.80
2018-12-20T17:50:23.061Z,4.80
2018-12-20T17:52:58.269Z,4.80
2018-12-20T17:55:33.126Z,4.80
2018-12-20T17:58:07.493Z,4.80
2018-12-20T18:00:42.841Z,4.80
2018-12-20T18:03:16.818Z,4.90
2018-12-20T18:05:51.029Z,4.90
2018-12-20T18:08:25.174Z,4.90
2018-12-20T18:10:59.152Z,4.80
2018-12-20T18:13:34.014Z,4.80
2018-12-20T18:16:08.157Z,4.80
2018-12-20T18:18:42.320Z,4.80
2018-12-20T18:21:16.363Z,4.80
2018-12-20T18:23:50.583Z,4.70
2018-12-20T18:26:25.441Z,4.70
2018-12-20T18:28:59.417Z,4.80
2018-12-20T18:31:34.279Z,4.80
2018-12-20T18:34:08.341Z,4.80
2018-12-20T18:36:43.142Z,4.80
2018-12-20T18:39:18.039Z,4.80
2018-12-20T18:41:52.814Z,4.80
2018-12-20T18:44:26.743Z,4.80
2018-12-20T18:47:00.875Z,4.80
2018-12-20T18:49:34.990Z,4.80
2018-12-20T18:52:10.290Z,4.80
2018-12-20T18:54:45.118Z,4.80
2018-12-20T18:57:19.981Z,4.80
2018-12-20T18:59:54.038Z,4.80
2018-12-20T19:02:28.142Z,4.70
2018-12-20T19:05:03.036Z,4.70
2018-12-20T19:07:36.971Z,4.70
2018-12-20T19:10:11.200Z,4.70
2018-12-20T19:12:47.425Z,4.70
2018-12-20T19:15:21.331Z,4.70
2018-12-20T19:17:55.457Z,4.80
2018-12-20T19:20:29.583Z,4.80
2018-12-20T19:23:03.570Z,4.70
2018-12-20T19:25:37.490Z,4.80
2018-12-20T19:28:11.989Z,4.80
2018-12-20T19:30:46.174Z,4.80
2018-12-20T19:33:21.288Z,4.80
2018-12-20T19:35:55.337Z,4.70
2018-12-20T19:38:29.993Z,4.80
2018-12-20T19:41:04.812Z,4.80
2018-12-20T19:43:38.886Z,4.80
2018-12-20T19:46:12.997Z,4.90
2018-12-20T19:48:47.125Z,4.80
2018-12-20T19:51:21.933Z,4.80
2018-12-20T19:53:57.110Z,4.80
2018-12-20T19:56:31.119Z,4.80
2018-12-20T19:59:05.163Z,4.80
2018-12-20T20:01:40.136Z,4.70
2018-12-20T20:04:15.402Z,4.80
2018-12-20T20:06:50.125Z,4.70
2018-12-20T20:09:25.010Z,4.70
2018-12-20T20:11:59.978Z,4.80
2018-12-20T20:14:33.901Z,4.80
2018-12-20T20:17:07.818Z,4.80
2018-12-20T20:19:41.825Z,4.90
2018-12-20T20:22:16.065Z,4.80
2018-12-20T20:24:50.854Z,4.80
2018-12-20T20:27:24.904Z,4.80
2018-12-20T20:29:58.878Z,4.80
2018-12-20T20:32:33.074Z,4.80
2018-12-20T20:35:07.761Z,4.80
2018-12-20T20:37:41.775Z,4.80
2018-12-20T20:40:15.685Z,4.80
2018-12-20T20:42:50.758Z,4.80
2018-12-20T20:45:24.693Z,4.70
2018-12-20T20:47:58.905Z,4.80
2018-12-20T20:50:33.081Z,4.70
2018-12-20T20:53:07.318Z,4.70
2018-12-20T20:55:41.270Z,4.70
2018-12-20T20:58:15.386Z,4.70
2018-12-20T21:00:50.222Z,4.70
2018-12-20T21:03:25.283Z,4.80
2018-12-20T21:05:59.442Z,4.70
2018-12-20T21:08:33.505Z,4.70
2018-12-20T21:11:07.535Z,4.70
2018-12-20T21:13:43.473Z,4.70
2018-12-20T21:16:17.521Z,4.70
2018-12-20T21:18:51.642Z,4.70
2018-12-20T21:21:25.684Z,4.80
2018-12-20T21:24:01.670Z,4.80
2018-12-20T21:44:12.801Z,5.00
2018-12-20T21:46:46.909Z,5.00
2018-12-20T21:51:52.581Z,5.20
2018-12-20T21:59:29.829Z,5.30
2018-12-20T22:02:05.198Z,5.20
2018-12-20T22:04:39.930Z,5.20
2018-12-20T22:07:14.801Z,5.10
2018-12-20T22:09:49.438Z,5.10
2018-12-20T22:12:24.231Z,5.10
2018-12-20T22:14:58.477Z,5.10
2018-12-20T22:17:32.377Z,5.10
2018-12-20T22:20:03.217Z,5.20
2018-12-20T22:22:38.507Z,5.30
2018-12-20T22:25:12.621Z,5.30
2018-12-20T22:27:46.781Z,5.40
2018-12-20T22:30:17.497Z,5.40
2018-12-20T22:32:53.542Z,5.50
2018-12-20T22:35:27.694Z,5.40
2018-12-20T22:38:01.645Z,5.40
2018-12-20T22:40:35.722Z,5.30
2018-12-20T22:43:06.614Z,5.30
2018-12-20T22:45:40.725Z,5.30
2018-12-20T22:48:14.867Z,5.30
2018-12-20T22:50:55.887Z,5.30
2018-12-20T22:53:26.949Z,5.30
2018-12-20T22:56:01.172Z,5.30
2018-12-20T22:58:36.078Z,5.20
2018-12-20T23:06:11.669Z,5.50
2018-12-20T23:08:46.368Z,5.60
2018-12-20T23:11:20.411Z,5.60
2018-12-20T23:13:55.230Z,5.50
2018-12-20T23:16:29.182Z,5.50
2018-12-20T23:19:03.140Z,5.60
2018-12-20T23:21:37.894Z,5.60
2018-12-20T23:24:12.706Z,5.60
2018-12-20T23:26:43.464Z,5.70
2018-12-20T23:29:17.370Z,5.70
2018-12-20T23:31:51.596Z,5.70
2018-12-20T23:34:26.430Z,5.60
2018-12-20T23:37:00.250Z,5.50
2018-12-20T23:39:34.457Z,5.60
2018-12-20T23:42:08.633Z,5.60
2018-12-20T23:44:42.642Z,5.60
2018-12-20T23:47:16.666Z,5.60
2018-12-20T23:49:50.670Z,5.60
2018-12-20T23:52:25.493Z,5.60
2018-12-20T23:54:59.549Z,5.50
2018-12-20T23:57:33.470Z,5.50
